createdAt,value
2019-04-21T00:01:50.713Z,27.40
2019-04-21T00:04:34.529Z,28.10
2019-04-21T00:07:08.844Z,28.40
2019-04-21T00:09:48.338Z,29.27
2019-04-21T00:12:15.050Z,29.33
2019-04-21T00:14:35.478Z,29.30
2019-04-21T00:17:03.088Z,28.90
2019-04-21T00:20:09.255Z,31.27
2019-04-21T00:22:37.759Z,30.27
2019-04-21T00:25:16.353Z,29.77
2019-04-21T00:27:46.490Z,29.50
2019-04-21T00:30:21.742Z,30.43
2019-04-21T00:32:41.977Z,28.70
2019-04-21T00:35:06.418Z,30.97
2019-04-21T00:37:54.703Z,31.10
2019-04-21T00:40:25.651Z,31.17
2019-04-21T00:42:52.160Z,32.40
2019-04-21T00:45:22.494Z,31.20
2019-04-21T00:48:00.711Z,32.37
2019-04-21T00:50:31.413Z,32.57
2019-04-21T00:53:05.608Z,31.70
2019-04-21T00:56:11.691Z,33.30
2019-04-21T00:58:43.807Z,32.30
2019-04-21T01:01:09.054Z,33.90
2019-04-21T01:03:37.278Z,33.20
2019-04-21T01:06:14.295Z,32.77
2019-04-21T01:08:41.418Z,34.30
2019-04-21T01:11:15.557Z,32.17
2019-04-21T01:13:49.752Z,33.10
2019-04-21T01:16:13.882Z,34.60
2019-04-21T01:18:42.607Z,32.40
2019-04-21T01:20:53.538Z,32.43
2019-04-21T01:23:23.398Z,31.83
2019-04-21T01:26:06.807Z,31.50
2019-04-21T01:28:40.026Z,34.90
2019-04-21T01:31:13.691Z,31.47
2019-04-21T01:33:50.937Z,33.03
2019-04-21T01:36:14.095Z,33.13
2019-04-21T01:38:48.268Z,34.33
2019-04-21T01:43:49.335Z,34.20
2019-04-21T01:46:18.021Z,32.73
2019-04-21T01:48:46.001Z,34.20
2019-04-21T01:51:23.521Z,33.40
2019-04-21T01:54:14.644Z,32.30
2019-04-21T01:56:52.395Z,32.90
2019-04-21T01:59:12.774Z,30.20
2019-04-21T02:01:52.736Z,32.47
2019-04-21T02:04:30.652Z,32.93
2019-04-21T02:06:57.311Z,31.27
2019-04-21T02:09:27.401Z,32.33
2019-04-21T02:12:05.751Z,30.27
2019-04-21T02:14:40.893Z,31.97
2019-04-21T02:17:12.257Z,31.37
2019-04-21T02:19:31.206Z,32.03
2019-04-21T02:21:59.552Z,32.00
2019-04-21T02:24:42.323Z,33.10
2019-04-21T02:27:08.558Z,31.30
2019-04-21T02:29:40.897Z,32.60
2019-04-21T02:37:40.275Z,30.20
2019-04-21T02:39:58.822Z,29.60
2019-04-21T02:42:20.063Z,30.40
2019-04-21T02:44:51.832Z,31.20
2019-04-21T02:47:38.777Z,30.87
2019-04-21T02:54:53.906Z,27.70
2019-04-21T03:00:06.837Z,26.37
2019-04-21T03:03:04.686Z,26.60
2019-04-21T03:05:51.156Z,27.83
2019-04-21T03:08:25.660Z,27.60
2019-04-21T03:11:09.401Z,29.13
2019-04-21T03:13:29.804Z,26.37
2019-04-21T03:16:02.923Z,25.90
2019-04-21T03:23:31.990Z,25.03
2019-04-21T03:26:05.415Z,25.57
2019-04-21T03:28:30.132Z,25.63
2019-04-21T03:31:32.090Z,25.97
2019-04-21T03:36:37.234Z,26.03
2019-04-21T03:41:04.195Z,26.93
2019-04-21T03:43:34.818Z,24.50
2019-04-21T03:46:28.238Z,24.93
2019-04-21T03:48:36.125Z,24.00
2019-04-21T03:51:14.899Z,25.87
2019-04-21T03:56:44.516Z,24.33
2019-04-21T04:01:41.216Z,25.43
2019-04-21T04:04:27.869Z,23.53
2019-04-21T04:09:52.540Z,22.83
2019-04-21T04:12:02.368Z,22.43
2019-04-21T04:14:48.029Z,20.70
2019-04-21T04:17:13.695Z,20.93
2019-04-21T04:19:41.912Z,20.20
2019-04-21T04:22:14.323Z,20.60
2019-04-21T04:24:49.326Z,20.70
2019-04-21T04:27:22.486Z,20.27
2019-04-21T04:29:42.283Z,21.30
2019-04-21T04:32:16.558Z,20.07
2019-04-21T04:34:49.767Z,20.90
2019-04-21T04:37:28.740Z,21.80
2019-04-21T04:40:14.274Z,22.43
2019-04-21T04:43:08.981Z,23.97
2019-04-21T04:45:38.485Z,23.00
2019-04-21T04:48:05.853Z,22.80
2019-04-21T04:50:43.364Z,23.03
2019-04-21T04:53:11.965Z,22.57
2019-04-21T04:55:41.010Z,22.20
2019-04-21T04:58:07.608Z,24.30
2019-04-21T05:03:18.957Z,23.53
2019-04-21T05:06:11.950Z,25.23
2019-04-21T05:08:43.870Z,24.20
2019-04-21T05:11:06.433Z,24.43
2019-04-21T05:13:34.808Z,23.80
2019-04-21T05:16:02.256Z,22.00
2019-04-21T05:18:36.756Z,21.73
2019-04-21T05:21:12.478Z,21.50
2019-04-21T05:23:29.232Z,21.57
2019-04-21T05:25:51.225Z,21.63
2019-04-21T05:28:21.500Z,21.70
2019-04-21T05:31:15.170Z,20.57
2019-04-21T05:34:00.380Z,21.33
2019-04-21T05:36:50.535Z,20.10
2019-04-21T05:39:46.794Z,20.53
2019-04-21T05:42:05.127Z,19.30
2019-04-21T05:45:00.144Z,15.43
2019-04-21T05:47:29.006Z,13.20
2019-04-21T05:49:55.955Z,11.70
2019-04-21T05:52:23.216Z,12.27
2019-04-21T05:55:00.856Z,10.47
2019-04-21T05:57:32.209Z,10.90
2019-04-21T05:59:59.408Z,10.50
2019-04-21T06:02:28.979Z,11.20
2019-04-21T06:05:18.530Z,9.60
2019-04-21T06:07:34.749Z,10.50
2019-04-21T06:10:22.231Z,11.10
2019-04-21T06:12:40.490Z,9.40
2019-04-21T06:15:12.315Z,9.73
2019-04-21T06:20:05.630Z,10.63
2019-04-21T06:22:36.095Z,10.17
2019-04-21T06:27:40.817Z,9.97
2019-04-21T06:30:12.069Z,10.80
2019-04-21T06:32:49.155Z,10.50
2019-04-21T06:36:07.802Z,8.87
2019-04-21T06:38:15.267Z,9.30
2019-04-21T06:40:52.630Z,8.77
2019-04-21T06:43:28.036Z,8.20
2019-04-21T06:45:50.746Z,7.93
2019-04-21T06:48:22.497Z,8.17
2019-04-21T06:50:52.526Z,8.50
2019-04-21T06:53:22.958Z,8.23
2019-04-21T06:55:43.530Z,8.50
2019-04-21T06:58:22.842Z,8.00
2019-04-21T07:00:40.973Z,7.23
2019-04-21T07:03:26.824Z,7.47
2019-04-21T07:06:00.304Z,7.60
2019-04-21T07:08:30.937Z,7.63
2019-04-21T07:10:52.081Z,7.00
2019-04-21T07:13:23.672Z,7.97
2019-04-21T07:16:00.498Z,7.20
2019-04-21T07:18:27.588Z,6.50
2019-04-21T07:20:53.268Z,7.70
2019-04-21T07:23:33.809Z,7.90
2019-04-21T07:25:58.227Z,7.33
2019-04-21T07:28:31.965Z,7.63
2019-04-21T07:31:08.030Z,7.07
2019-04-21T07:33:49.497Z,6.70
2019-04-21T07:36:01.326Z,6.30
2019-04-21T07:38:27.427Z,6.83
2019-04-21T07:40:58.799Z,6.03
2019-04-21T07:43:28.604Z,7.10
2019-04-21T07:45:59.890Z,6.70
2019-04-21T07:48:38.043Z,7.13
2019-04-21T07:51:17.264Z,7.57
2019-04-21T07:53:55.863Z,6.67
2019-04-21T07:56:09.474Z,7.10
2019-04-21T07:59:00.184Z,6.80
2019-04-21T08:01:26.816Z,6.57
2019-04-21T08:04:03.357Z,6.33
2019-04-21T08:06:37.142Z,6.30
2019-04-21T08:09:02.908Z,6.57
2019-04-21T08:11:28.434Z,6.67
2019-04-21T08:14:04.593Z,6.27
2019-04-21T08:16:37.051Z,6.40
2019-04-21T08:19:09.606Z,6.67
2019-04-21T08:24:11.702Z,6.60
2019-04-21T08:26:44.945Z,6.60
2019-04-21T08:29:20.287Z,6.60
2019-04-21T08:32:02.847Z,6.87
2019-04-21T08:34:14.061Z,6.33
2019-04-21T08:36:44.971Z,5.60
2019-04-21T08:39:19.555Z,6.70
2019-04-21T08:41:52.343Z,6.77
2019-04-21T08:44:25.645Z,6.90
2019-04-21T08:46:56.805Z,6.90
2019-04-21T08:49:22.209Z,7.03
2019-04-21T08:52:08.222Z,6.00
2019-04-21T08:54:26.538Z,6.13
2019-04-21T08:57:28.062Z,6.93
2019-04-21T09:00:01.502Z,5.67
2019-04-21T09:02:35.256Z,5.50
2019-04-21T09:05:05.247Z,5.30
2019-04-21T09:07:41.319Z,6.83
2019-04-21T09:10:02.830Z,5.73
2019-04-21T09:12:39.135Z,5.97
2019-04-21T09:15:11.456Z,5.40
2019-04-21T09:17:35.540Z,5.67
2019-04-21T09:20:16.975Z,6.50
2019-04-21T09:22:43.065Z,5.13
2019-04-21T09:25:19.613Z,4.97
2019-04-21T09:27:41.953Z,5.70
2019-04-21T09:30:02.654Z,5.30
2019-04-21T09:32:33.082Z,5.23
2019-04-21T09:35:05.424Z,5.80
2019-04-21T09:37:44.391Z,5.73
2019-04-21T09:40:04.987Z,5.40
2019-04-21T09:42:42.169Z,5.80
2019-04-21T09:45:09.742Z,5.20
2019-04-21T09:47:46.025Z,5.40
2019-04-21T09:50:10.303Z,4.57
2019-04-21T09:52:47.713Z,4.63
2019-04-21T09:55:17.376Z,5.00
2019-04-21T09:57:51.602Z,5.60
2019-04-21T10:00:22.740Z,4.50
2019-04-21T10:02:56.742Z,4.70
2019-04-21T10:05:19.110Z,4.47
2019-04-21T10:07:49.005Z,5.73
2019-04-21T10:10:19.225Z,5.27
2019-04-21T10:12:49.958Z,5.10
2019-04-21T10:15:23.258Z,4.63
2019-04-21T10:17:54.412Z,5.17
2019-04-21T10:20:24.518Z,4.80
2019-04-21T10:22:55.291Z,4.63
2019-04-21T10:25:25.134Z,5.47
2019-04-21T10:27:54.986Z,5.60
2019-04-21T10:30:24.857Z,5.17
2019-04-21T10:32:54.544Z,4.87
2019-04-21T10:35:25.035Z,4.20
2019-04-21T10:38:06.735Z,5.20
2019-04-21T10:40:30.717Z,5.10
2019-04-21T10:43:00.490Z,4.70
2019-04-21T10:45:30.905Z,5.10
2019-04-21T10:48:00.996Z,5.30
2019-04-21T10:50:31.386Z,4.90
2019-04-21T10:53:05.028Z,4.83
2019-04-21T10:55:48.673Z,5.10
2019-04-21T10:58:11.287Z,4.60
2019-04-21T11:00:42.324Z,4.67
2019-04-21T11:03:29.083Z,4.53
2019-04-21T11:05:59.168Z,3.87
2019-04-21T11:08:34.165Z,4.20
2019-04-21T11:11:01.526Z,3.80
2019-04-21T11:13:32.502Z,4.00
2019-04-21T11:16:03.400Z,3.90
2019-04-21T11:18:33.971Z,3.87
2019-04-21T11:21:04.932Z,4.20
2019-04-21T11:23:35.367Z,4.43
2019-04-21T11:26:06.456Z,3.97
2019-04-21T11:28:36.754Z,3.70
2019-04-21T11:31:07.060Z,3.20
2019-04-21T11:33:37.604Z,3.77
2019-04-21T11:36:07.252Z,3.93
2019-04-21T11:38:57.088Z,3.60
2019-04-21T11:41:12.009Z,3.40
2019-04-21T11:43:41.397Z,3.30
2019-04-21T11:46:12.742Z,3.37
2019-04-21T11:48:42.200Z,3.47
2019-04-21T11:51:11.540Z,3.20
2019-04-21T11:53:41.250Z,3.77
2019-04-21T11:56:11.056Z,3.03
2019-04-21T11:58:41.557Z,3.20
2019-04-21T12:01:13.741Z,3.70
2019-04-21T12:03:43.588Z,3.17
2019-04-21T12:06:13.472Z,3.40
2019-04-21T12:08:47.421Z,3.70
2019-04-21T12:11:15.872Z,3.17
2019-04-21T12:13:45.993Z,3.37
2019-04-21T12:16:16.880Z,3.17
2019-04-21T12:18:47.176Z,3.40
2019-04-21T12:21:19.002Z,3.23
2019-04-21T12:23:50.190Z,3.57
2019-04-21T12:26:20.101Z,3.60
2019-04-21T12:28:50.167Z,3.83
2019-04-21T12:31:33.659Z,3.27
2019-04-21T12:34:07.888Z,3.33
2019-04-21T12:36:38.047Z,3.10
2019-04-21T12:39:10.681Z,3.10
2019-04-21T12:41:40.812Z,3.67
2019-04-21T12:44:10.887Z,3.30
2019-04-21T12:46:40.630Z,3.70
2019-04-21T12:49:11.738Z,4.40
2019-04-21T12:51:41.855Z,3.40
2019-04-21T12:54:12.035Z,3.50
2019-04-21T12:56:43.248Z,3.00
2019-04-21T12:59:13.057Z,3.40
2019-04-21T13:01:43.125Z,3.47
2019-04-21T13:04:13.528Z,3.00
2019-04-21T13:06:43.556Z,3.13
2019-04-21T13:09:16.365Z,3.60
2019-04-21T13:11:43.731Z,4.40
2019-04-21T13:14:13.809Z,3.30
2019-04-21T13:16:43.400Z,3.00
2019-04-21T13:19:13.379Z,3.70
2019-04-21T13:21:42.657Z,3.90
2019-04-21T13:24:11.823Z,2.83
2019-04-21T13:26:47.217Z,2.90
2019-04-21T13:29:12.279Z,3.20
2019-04-21T13:31:42.552Z,2.83
2019-04-21T13:34:11.866Z,2.90
2019-04-21T13:36:41.423Z,7.87
2019-04-21T13:39:55.477Z,3.70
2019-04-21T13:42:13.463Z,2.63
2019-04-21T13:44:34.979Z,3.03
2019-04-21T13:47:04.900Z,2.80
2019-04-21T13:49:35.127Z,3.10
2019-04-21T13:52:04.855Z,2.97
2019-04-21T13:54:34.132Z,3.10
2019-04-21T13:57:04.784Z,2.90
2019-04-21T13:59:34.371Z,3.13
2019-04-21T14:02:04.736Z,2.93
2019-04-21T14:04:34.022Z,3.07
2019-04-21T14:07:03.356Z,3.23
2019-04-21T14:09:40.317Z,3.53
2019-04-21T14:12:03.497Z,3.00
2019-04-21T14:14:32.831Z,3.60
2019-04-21T14:17:03.940Z,3.40
2019-04-21T14:19:33.210Z,3.30
2019-04-21T14:22:03.446Z,3.30
2019-04-21T14:24:32.935Z,3.43
2019-04-21T14:27:02.697Z,3.70
2019-04-21T14:29:33.391Z,3.40
2019-04-21T14:32:04.264Z,3.40
2019-04-21T14:34:34.001Z,3.13
2019-04-21T14:37:04.880Z,3.90
2019-04-21T14:39:38.167Z,3.53
2019-04-21T14:42:06.430Z,3.50
2019-04-21T14:44:36.517Z,3.10
2019-04-21T14:47:25.111Z,3.33
2019-04-21T14:50:19.860Z,3.33
2019-04-21T14:53:09.808Z,3.90
2019-04-21T14:55:41.592Z,4.57
2019-04-21T14:58:10.824Z,4.83
2019-04-21T15:00:51.403Z,3.20
2019-04-21T15:03:21.696Z,4.00
2019-04-21T15:05:51.520Z,3.80
2019-04-21T15:08:21.567Z,4.10
2019-04-21T15:10:50.860Z,3.60
2019-04-21T15:13:20.041Z,3.30
2019-04-21T15:15:49.879Z,3.60
2019-04-21T15:18:19.168Z,3.90
2019-04-21T15:20:50.297Z,4.00
2019-04-21T15:23:20.422Z,3.70
2019-04-21T15:25:50.296Z,4.00
2019-04-21T15:28:20.091Z,4.40
2019-04-21T15:30:50.413Z,3.33
2019-04-21T15:33:20.351Z,3.90
2019-04-21T15:35:49.563Z,3.67
2019-04-21T15:38:20.031Z,3.90
2019-04-21T15:40:55.430Z,3.93
2019-04-21T15:43:20.393Z,3.50
2019-04-21T15:45:50.767Z,3.60
2019-04-21T15:48:20.239Z,3.30
2019-04-21T15:50:51.546Z,3.80
2019-04-21T15:53:21.640Z,3.60
2019-04-21T15:55:59.160Z,3.70
2019-04-21T15:58:42.881Z,3.87
2019-04-21T16:01:34.585Z,3.80
2019-04-21T16:04:04.699Z,3.40
2019-04-21T16:06:35.277Z,3.40
2019-04-21T16:09:08.261Z,3.50
2019-04-21T16:11:37.957Z,3.43
2019-04-21T16:14:08.078Z,2.87
2019-04-21T16:16:37.421Z,3.77
2019-04-21T16:19:08.009Z,3.87
2019-04-21T16:21:41.019Z,8.10
2019-04-21T16:24:08.772Z,3.80
2019-04-21T16:26:40.506Z,4.23
2019-04-21T16:29:11.209Z,4.40
2019-04-21T16:31:40.631Z,3.07
2019-04-21T16:34:09.773Z,3.90
2019-04-21T16:36:38.936Z,4.27
2019-04-21T16:39:09.515Z,3.80
2019-04-21T16:41:38.776Z,3.90
2019-04-21T16:44:09.304Z,3.97
2019-04-21T16:46:38.665Z,3.77
2019-04-21T16:49:07.820Z,3.57
2019-04-21T16:51:38.051Z,2.90
2019-04-21T16:54:17.766Z,3.60
2019-04-21T16:56:59.805Z,3.60
2019-04-21T16:59:36.800Z,3.27
2019-04-21T17:02:07.016Z,3.47
2019-04-21T17:04:36.427Z,3.70
2019-04-21T17:07:07.194Z,4.00
2019-04-21T17:09:36.905Z,3.53
2019-04-21T17:12:10.004Z,3.90
2019-04-21T17:14:53.956Z,3.23
2019-04-21T17:17:35.246Z,3.40
2019-04-21T17:19:45.536Z,3.70
2019-04-21T17:22:11.553Z,4.30
2019-04-21T17:24:42.245Z,4.73
2019-04-21T17:27:12.928Z,5.47
2019-04-21T17:29:43.048Z,5.57
2019-04-21T17:32:12.376Z,6.27
2019-04-21T17:34:41.525Z,6.00
2019-04-21T17:37:11.030Z,5.90
2019-04-21T17:39:40.671Z,6.07
2019-04-21T17:42:18.523Z,7.20
2019-04-21T17:44:41.302Z,6.50
2019-04-21T17:47:25.259Z,6.97
2019-04-21T17:49:43.163Z,6.53
2019-04-21T17:52:40.119Z,7.27
2019-04-21T17:55:14.657Z,6.90
2019-04-21T17:57:58.122Z,6.67
2019-04-21T18:00:49.558Z,6.90
2019-04-21T18:03:02.027Z,6.40
2019-04-21T18:05:32.089Z,6.77
2019-04-21T18:08:02.813Z,6.60
2019-04-21T18:10:30.663Z,6.30
2019-04-21T18:12:57.318Z,6.57
2019-04-21T18:15:38.545Z,6.20
2019-04-21T18:17:50.300Z,5.93
2019-04-21T18:20:23.901Z,6.13
2019-04-21T18:23:07.502Z,6.30
2019-04-21T18:25:45.174Z,5.70
2019-04-21T18:28:04.985Z,6.27
2019-04-21T18:30:38.154Z,6.83
2019-04-21T18:33:15.606Z,5.87
2019-04-21T18:35:57.910Z,6.40
2019-04-21T18:39:21.960Z,6.07
2019-04-21T18:41:23.681Z,9.50
2019-04-21T18:44:21.285Z,7.30
2019-04-21T18:47:09.559Z,6.50
2019-04-21T18:49:29.070Z,5.87
2019-04-21T18:52:17.123Z,6.87
2019-04-21T18:54:49.154Z,6.10
2019-04-21T18:57:17.237Z,6.30
2019-04-21T18:59:40.275Z,6.00
2019-04-21T19:02:13.467Z,6.67
2019-04-21T19:04:40.961Z,6.33
2019-04-21T19:07:21.846Z,6.47
2019-04-21T19:12:36.642Z,6.50
2019-04-21T19:14:58.002Z,6.43
2019-04-21T19:20:16.014Z,6.33
2019-04-21T19:22:36.020Z,7.10
2019-04-21T19:25:07.287Z,6.30
2019-04-21T19:27:36.626Z,6.97
2019-04-21T19:30:13.531Z,6.73
2019-04-21T19:32:33.514Z,7.00
2019-04-21T19:34:57.609Z,7.30
2019-04-21T19:37:26.988Z,7.67
2019-04-21T19:40:07.946Z,7.10
2019-04-21T19:42:38.279Z,7.17
2019-04-21T19:45:15.161Z,6.40
2019-04-21T19:47:50.367Z,7.00
2019-04-21T19:50:19.462Z,7.03
2019-04-21T19:52:41.022Z,7.40
2019-04-21T19:55:00.621Z,6.70
2019-04-21T19:57:31.331Z,6.83
2019-04-21T20:00:04.188Z,7.03
2019-04-21T20:02:32.246Z,6.47
2019-04-21T20:05:07.077Z,6.43
2019-04-21T20:07:48.047Z,6.90
2019-04-21T20:10:31.512Z,6.87
2019-04-21T20:12:50.271Z,6.47
2019-04-21T20:15:32.991Z,6.80
2019-04-21T20:17:52.987Z,6.90
2019-04-21T20:20:08.967Z,6.93
2019-04-21T20:22:43.286Z,6.83
2019-04-21T20:25:14.121Z,6.30
2019-04-21T20:27:50.973Z,6.37
2019-04-21T20:30:31.316Z,6.80
2019-04-21T20:33:05.815Z,6.33
2019-04-21T20:35:42.949Z,6.77
2019-04-21T20:37:57.664Z,6.83
2019-04-21T20:40:25.104Z,6.70
2019-04-21T20:43:08.625Z,5.80
2019-04-21T20:45:40.635Z,6.30
2019-04-21T20:47:53.717Z,6.50
2019-04-21T20:50:35.369Z,6.70
2019-04-21T20:53:10.971Z,6.80
2019-04-21T20:55:35.386Z,6.10
2019-04-21T20:58:04.524Z,7.00
2019-04-21T21:00:54.636Z,6.43
2019-04-21T21:03:12.050Z,6.73
2019-04-21T21:05:39.863Z,6.33
2019-04-21T21:08:17.952Z,7.23
2019-04-21T21:10:38.833Z,6.40
2019-04-21T21:13:24.408Z,6.60
2019-04-21T21:15:52.675Z,6.40
2019-04-21T21:18:26.146Z,7.10
2019-04-21T21:20:49.883Z,7.20
2019-04-21T21:23:14.053Z,6.97
2019-04-21T21:25:50.436Z,6.77
2019-04-21T21:28:17.174Z,6.37
2019-04-21T21:30:53.038Z,6.77
2019-04-21T21:33:30.715Z,6.90
2019-04-21T21:35:52.246Z,7.40
2019-04-21T21:38:26.544Z,7.07
2019-04-21T21:40:53.038Z,7.20
2019-04-21T21:43:15.257Z,6.40
2019-04-21T21:45:47.526Z,6.70
2019-04-21T21:48:26.290Z,6.73
2019-04-21T21:50:50.968Z,6.70
2019-04-21T21:53:16.449Z,6.70
2019-04-21T21:55:44.718Z,6.77
2019-04-21T21:58:15.635Z,6.93
2019-04-21T22:00:49.990Z,6.80
2019-04-21T22:03:27.430Z,6.60
2019-04-21T22:05:58.260Z,6.33
2019-04-21T22:08:20.646Z,6.70
2019-04-21T22:10:50.106Z,6.70
2019-04-21T22:13:21.949Z,6.50
2019-04-21T22:15:56.442Z,6.43
2019-04-21T22:18:41.004Z,6.07
2019-04-21T22:21:09.171Z,6.90
2019-04-21T22:23:36.066Z,6.20
2019-04-21T22:25:53.781Z,5.80
2019-04-21T22:28:22.884Z,6.90
2019-04-21T22:30:53.690Z,6.50
2019-04-21T22:33:23.844Z,6.27
2019-04-21T22:36:00.427Z,6.30
2019-04-21T22:38:38.111Z,6.07
2019-04-21T22:41:04.651Z,7.03
2019-04-21T22:43:32.672Z,6.20
2019-04-21T22:45:56.378Z,5.80
2019-04-21T22:48:28.652Z,6.07
2019-04-21T22:50:56.347Z,5.90
2019-04-21T22:53:29.166Z,5.67
2019-04-21T22:56:02.842Z,5.90
2019-04-21T22:58:31.750Z,6.47
2019-04-21T23:01:01.571Z,6.63
2019-04-21T23:03:30.308Z,6.23
2019-04-21T23:06:06.941Z,6.20
2019-04-21T23:08:36.278Z,5.70
2019-04-21T23:11:04.888Z,6.10
2019-04-21T23:13:32.798Z,5.80
2019-04-21T23:16:04.819Z,5.93
2019-04-21T23:18:46.095Z,5.90
2019-04-21T23:21:16.305Z,6.00
2019-04-21T23:23:59.358Z,5.83
2019-04-21T23:26:29.840Z,5.93
2019-04-21T23:28:57.260Z,6.13
2019-04-21T23:31:30.092Z,6.27
2019-04-21T23:33:40.537Z,5.70
2019-04-21T23:36:16.548Z,5.70
2019-04-21T23:38:44.042Z,9.63
2019-04-21T23:41:13.102Z,6.63
2019-04-21T23:43:44.845Z,6.13
2019-04-21T23:46:20.269Z,5.90
2019-04-21T23:49:02.455Z,5.70
2019-04-21T23:51:27.498Z,6.03
2019-04-21T23:53:47.259Z,6.10
2019-04-21T23:56:21.676Z,5.30
2019-04-21T23:58:54.695Z,5.60
